Time;durP1;ratioP1;P1;durP2;ratioP2;P2;SDS_P1;SDS_P2;PMS_P1;PMS_P2;Temp;Humidity;BMP_temperature;BMP_pressure;BME280_temperature;BME280_humidity;BME280_pressure;Samples;Min_cycle;Max_cycle;Signal;HPM_P1;HPM_P2
2022/09/15 00:00:16;;;;;;;1.35;1.10;;;;;;;16.57;95.84;94667.16;5044672;28;20233;-80
2022/09/15 00:02:42;;;;;;;2.70;1.30;;;;;;;16.65;95.26;94664.31;5017365;28;20251;-82
2022/09/15 00:05:08;;;;;;;1.45;1.35;;;;;;;16.65;95.65;94666.94;5036881;28;20244;-80
2022/09/15 00:07:33;;;;;;;2.42;1.40;;;;;;;16.62;95.95;94669.97;5010318;28;20656;-80
2022/09/15 00:09:58;;;;;;;2.40;1.10;;;;;;;16.64;95.38;94664.53;5033831;28;20211;-81
2022/09/15 00:12:25;;;;;;;2.15;1.02;;;;;;;16.54;96.68;94657.09;5024462;28;20202;-80
2022/09/15 00:14:50;;;;;;;2.92;1.20;;;;;;;16.58;96.76;94654.88;5010265;28;20191;-80
2022/09/15 00:17:15;;;;;;;1.45;1.35;;;;;;;16.59;96.57;94657.28;5031522;28;20230;-80
2022/09/15 00:19:41;;;;;;;1.88;1.48;;;;;;;16.54;97.96;94648.44;5032392;28;20183;-80
2022/09/15 00:22:06;;;;;;;2.05;1.27;;;;;;;16.54;96.36;94656.28;5041049;28;20183;-80
2022/09/15 00:24:31;;;;;;;1.52;1.20;;;;;;;16.59;96.09;94649.41;5006403;28;20191;-80
2022/09/15 00:26:57;;;;;;;2.08;1.35;;;;;;;16.59;97.03;94659.91;5018983;28;20206;-80
2022/09/15 00:29:22;;;;;;;2.80;1.17;;;;;;;16.47;96.91;94656.31;5008638;28;20194;-80
2022/09/15 00:31:47;;;;;;;4.43;1.20;;;;;;;16.60;95.87;94658.88;5016793;28;20198;-81
2022/09/15 00:34:13;;;;;;;1.63;1.15;;;;;;;16.53;95.44;94655.50;5010228;28;20191;-81
2022/09/15 00:36:39;;;;;;;1.45;1.35;;;;;;;16.61;95.57;94662.34;5023229;28;20711;-80
2022/09/15 00:39:04;;;;;;;1.63;1.25;;;;;;;16.62;95.64;94669.19;5008956;28;20190;-81
2022/09/15 00:41:29;;;;;;;1.40;1.30;;;;;;;16.67;95.13;94677.22;5022839;28;20588;-81
2022/09/15 00:43:59;;;;;;;1.70;1.33;;;;;;;16.68;94.32;94669.16;5008754;28;20182;-80
2022/09/15 00:46:31;;;;;;;1.40;1.30;;;;;;;16.78;94.32;94681.03;5024698;28;20688;-80
2022/09/15 00:49:04;;;;;;;2.00;1.67;;;;;;;16.72;95.46;94676.63;5012838;28;20239;-80
2022/09/15 00:52:06;;;;;;;3.25;1.52;;;;;;;16.80;94.80;94665.94;5023417;28;20194;-80
2022/09/15 00:54:39;;;;;;;2.95;1.50;;;;;;;16.89;95.27;94664.69;5012439;28;20664;-80
2022/09/15 00:57:18;;;;;;;1.60;1.50;;;;;;;16.91;94.61;94658.22;5033435;28;20230;-80
2022/09/15 00:59:44;;;;;;;3.20;1.77;;;;;;;16.87;95.03;94658.81;5016832;28;20191;-80
2022/09/15 01:02:31;;;;;;;3.40;1.50;;;;;;;16.87;94.76;94657.03;5008398;28;20667;-80
2022/09/15 01:04:57;;;;;;;2.72;1.63;;;;;;;16.95;94.76;94656.78;5027945;28;20217;-80
2022/09/15 01:07:27;;;;;;;1.60;1.48;;;;;;;16.98;94.69;94653.75;5024589;28;20210;-81
2022/09/15 01:09:56;;;;;;;2.35;1.98;;;;;;;16.93;94.99;94648.31;5029673;28;20178;-80
2022/09/15 01:12:23;;;;;;;3.80;1.80;;;;;;;16.90;95.51;94643.50;5004697;28;20183;-80
2022/09/15 01:14:48;;;;;;;3.58;1.50;;;;;;;16.92;95.91;94638.03;5009662;28;20187;-79
2022/09/15 01:17:44;;;;;;;2.33;1.67;;;;;;;16.91;95.07;94633.81;5025406;28;20225;-80
2022/09/15 01:20:44;;;;;;;6.00;1.80;;;;;;;16.91;95.67;94631.19;5022482;28;20186;-80
2022/09/15 01:23:20;;;;;;;4.30;2.00;;;;;;;16.88;95.89;94629.00;5032060;28;20520;-81
2022/09/15 01:25:54;;;;;;;3.20;1.77;;;;;;;16.78;97.15;94628.59;5002077;28;20237;-80
2022/09/15 01:28:29;;;;;;;2.08;1.80;;;;;;;16.83;96.69;94626.19;5041751;28;20241;-80
2022/09/15 01:31:22;;;;;;;2.60;1.95;;;;;;;16.77;97.53;94625.19;5022781;28;20608;-80
2022/09/15 01:33:54;;;;;;;5.47;2.00;;;;;;;16.75;97.38;94619.34;5024626;28;20191;-80
2022/09/15 01:36:27;;;;;;;1.98;1.80;;;;;;;16.58;98.70;94629.44;5022248;28;20202;-80
2022/09/15 01:39:06;;;;;;;1.95;1.77;;;;;;;16.58;98.83;94613.72;5031280;28;20671;-79
2022/09/15 01:41:52;;;;;;;3.63;1.92;;;;;;;16.54;99.26;94617.78;5002298;28;20193;-80
2022/09/15 01:44:22;;;;;;;4.00;2.25;;;;;;;16.56;98.79;94604.47;5022927;28;20239;-80
2022/09/15 01:46:51;;;;;;;2.10;1.73;;;;;;;16.67;98.21;94599.38;5023257;28;20211;-80
2022/09/15 01:49:20;;;;;;;2.03;1.83;;;;;;;16.83;96.73;94602.56;5026904;28;20191;-80
2022/09/15 01:51:47;;;;;;;3.17;2.10;;;;;;;16.90;96.36;94604.16;5029013;28;20183;-80
2022/09/15 01:54:13;;;;;;;3.90;2.10;;;;;;;16.91;96.04;94607.59;5000255;28;20202;-80
2022/09/15 01:56:40;;;;;;;2.38;1.75;;;;;;;16.83;96.20;94613.06;5023433;28;20219;-79
2022/09/15 01:59:06;;;;;;;3.08;1.98;;;;;;;16.91;95.78;94613.63;5024054;28;20187;-80
2022/09/15 02:01:45;;;;;;;3.78;1.90;;;;;;;17.04;94.82;94623.25;5007307;28;20633;-80
2022/09/15 02:04:17;;;;;;;3.22;1.85;;;;;;;17.11;94.88;94618.78;5017853;28;20186;-81
2022/09/15 02:06:59;;;;;;;7.93;2.80;;;;;;;17.02;95.81;94633.13;5017677;28;20213;-81
2022/09/15 02:09:32;;;;;;;2.70;1.85;;;;;;;16.95;95.91;94627.13;5019499;28;20183;-80
2022/09/15 02:12:06;;;;;;;2.30;2.10;;;;;;;16.93;96.19;94626.53;5009758;28;20194;-80
2022/09/15 02:14:37;;;;;;;6.53;2.30;;;;;;;16.82;97.79;94620.13;5028100;28;20191;-80
2022/09/15 02:17:04;;;;;;;2.33;2.05;;;;;;;16.85;96.90;94618.91;5037837;28;20237;-80
2022/09/15 02:19:35;;;;;;;2.92;2.00;;;;;;;16.87;97.13;94616.88;5057986;28;20289;-81
2022/09/15 02:22:09;;;;;;;2.03;1.85;;;;;;;17.06;96.06;94607.31;5034720;28;20183;-81
2022/09/15 02:24:38;;;;;;;2.92;2.30;;;;;;;16.92;96.97;94615.25;5026034;28;20269;-80
2022/09/15 02:27:07;;;;;;;3.95;1.75;;;;;;;17.10;95.85;94609.28;5038534;28;20190;-81
2022/09/15 02:29:33;;;;;;;3.05;2.60;;;;;;;16.91;97.21;94610.22;5037603;28;20641;-81
2022/09/15 02:32:01;;;;;;;5.70;2.22;;;;;;;16.95;96.77;94609.56;5033950;28;20714;-81
2022/09/15 02:34:30;;;;;;;3.58;2.05;;;;;;;16.95;97.52;94614.00;5041512;28;20189;-82
2022/09/15 02:36:56;;;;;;;3.22;2.53;;;;;;;16.97;96.81;94610.19;5021170;28;20232;-82
2022/09/15 02:39:26;;;;;;;3.20;2.10;;;;;;;16.89;97.80;94605.19;5036521;28;20194;-82
2022/09/15 02:41:51;;;;;;;3.42;2.03;;;;;;;16.92;97.54;94603.94;5026780;28;20199;-82
2022/09/15 02:44:16;;;;;;;3.15;2.22;;;;;;;16.86;98.43;94596.91;5029693;28;20207;-82
2022/09/15 02:46:42;;;;;;;3.10;2.28;;;;;;;16.91;97.72;94597.09;5022023;28;20222;-82
2022/09/15 02:49:08;;;;;;;5.18;2.20;;;;;;;16.88;97.60;94590.47;5035847;28;20187;-82
2022/09/15 02:51:33;;;;;;;4.65;2.22;;;;;;;16.84;98.00;94589.25;5024914;28;20183;-82
2022/09/15 02:53:58;;;;;;;3.17;2.70;;;;;;;16.88;97.99;94584.41;5037148;28;20197;-81
2022/09/15 02:56:24;;;;;;;2.63;2.05;;;;;;;16.90;97.79;94583.19;5010896;28;20207;-81
2022/09/15 02:58:49;;;;;;;2.58;2.35;;;;;;;16.86;97.71;94583.78;5027710;28;20194;-81
2022/09/15 03:01:14;;;;;;;4.75;2.63;;;;;;;16.97;96.81;94589.19;5031048;28;20179;-81
2022/09/15 03:03:41;;;;;;;2.65;2.10;;;;;;;16.84;97.28;94588.44;5023213;28;20183;-81
2022/09/15 03:06:15;;;;;;;4.65;2.10;;;;;;;16.90;96.83;94591.03;5008779;28;20218;-82
2022/09/15 03:08:52;;;;;;;2.95;2.00;;;;;;;16.97;96.45;94596.25;5029768;28;20189;-80
2022/09/15 03:11:19;;;;;;;3.65;2.60;;;;;;;16.88;97.35;94585.22;5019875;28;20190;-80
2022/09/15 03:13:45;;;;;;;2.15;1.92;;;;;;;16.85;97.70;94595.31;5034671;28;20188;-80
2022/09/15 03:16:12;;;;;;;2.42;1.67;;;;;;;16.98;96.61;94593.44;5011574;28;20716;-81
2022/09/15 03:18:38;;;;;;;3.13;2.10;;;;;;;17.05;95.83;94601.28;5032198;28;20252;-82
2022/09/15 03:21:06;;;;;;;2.78;1.70;;;;;;;17.05;95.74;94603.88;5017862;28;20178;-82
2022/09/15 03:23:31;;;;;;;3.13;2.05;;;;;;;17.07;95.28;94601.84;5025058;28;20723;-81
2022/09/15 03:25:58;;;;;;;3.22;1.90;;;;;;;17.08;95.74;94603.47;5023756;28;20234;-82
2022/09/15 03:28:24;;;;;;;2.47;1.77;;;;;;;17.14;95.27;94600.00;5014417;28;20183;-81
2022/09/15 03:30:49;;;;;;;3.33;1.70;;;;;;;17.19;94.89;94600.16;5038601;28;20177;-82
2022/09/15 03:33:14;;;;;;;1.75;1.60;;;;;;;17.16;94.75;94602.41;5055504;28;20211;-81
2022/09/15 03:35:40;;;;;;;3.80;1.65;;;;;;;17.28;93.49;94598.88;5059055;28;20207;-81
2022/09/15 03:38:05;;;;;;;3.72;1.95;;;;;;;17.22;94.45;94597.09;5024631;28;20229;-81
2022/09/15 03:40:32;;;;;;;4.38;1.75;;;;;;;17.28;93.98;94601.50;5045456;28;20216;-80
2022/09/15 03:42:58;;;;;;;6.32;2.30;;;;;;;17.17;94.85;94609.25;5037356;28;20187;-80
2022/09/15 03:45:23;;;;;;;2.50;2.20;;;;;;;17.24;94.12;94600.34;5033683;28;20238;-80
2022/09/15 03:47:48;;;;;;;2.00;1.90;;;;;;;17.31;93.91;94605.53;5030205;28;20197;-80
2022/09/15 03:50:13;;;;;;;1.88;1.73;;;;;;;17.34;93.96;94599.06;5014748;28;20199;-81
2022/09/15 03:52:39;;;;;;;6.53;2.03;;;;;;;17.17;95.16;94610.06;5033811;28;20189;-81
2022/09/15 03:55:04;;;;;;;2.78;2.10;;;;;;;17.18;95.29;94606.44;5011568;28;20203;-80
2022/09/15 03:57:30;;;;;;;3.95;2.30;;;;;;;17.15;95.93;94606.06;5037608;28;20759;-80
2022/09/15 03:59:55;;;;;;;3.10;2.00;;;;;;;17.03;96.90;94607.72;5041315;28;20190;-81
2022/09/15 04:02:20;;;;;;;2.22;2.00;;;;;;;17.14;96.55;94602.63;5037981;28;20190;-81
2022/09/15 04:04:46;;;;;;;3.88;2.33;;;;;;;17.11;96.98;94615.34;5032046;28;20174;-80
2022/09/15 04:07:11;;;;;;;4.70;2.55;;;;;;;17.04;97.78;94615.38;5034559;28;20179;-81
2022/09/15 04:09:36;;;;;;;2.83;2.50;;;;;;;17.02;97.91;94608.72;5027681;28;20196;-81
2022/09/15 04:12:02;;;;;;;3.85;2.50;;;;;;;17.04;98.02;94612.75;5021172;28;20232;-79
2022/09/15 04:14:28;;;;;;;3.05;2.70;;;;;;;17.05;98.90;94616.16;5035332;28;20560;-80
2022/09/15 04:16:53;;;;;;;3.95;2.67;;;;;;;16.96;100.00;94613.81;5033374;28;20206;-81
2022/09/15 04:19:18;;;;;;;5.93;2.85;;;;;;;16.80;100.00;94603.81;5029559;28;20613;-81
2022/09/15 04:21:46;;;;;;;5.63;3.38;;;;;;;16.90;100.00;94608.59;5029712;28;20200;-80
2022/09/15 04:24:11;;;;;;;4.57;3.17;;;;;;;16.92;100.00;94604.75;5015754;28;20211;-80
2022/09/15 04:26:36;;;;;;;3.17;2.88;;;;;;;16.91;100.00;94603.13;5028892;28;20256;-80
2022/09/15 04:29:10;;;;;;;5.35;3.17;;;;;;;16.96;100.00;94602.50;5028967;28;20269;-80
2022/09/15 04:31:35;;;;;;;3.33;2.90;;;;;;;16.84;100.00;94604.19;5029755;28;20238;-80
2022/09/15 04:34:01;;;;;;;5.18;2.80;;;;;;;16.78;100.00;94610.25;5007570;28;20656;-81
2022/09/15 04:36:27;;;;;;;6.88;2.92;;;;;;;16.82;100.00;94607.03;5022749;28;20207;-80
2022/09/15 04:38:53;;;;;;;3.83;2.83;;;;;;;16.79;100.00;94601.41;5017240;28;20186;-81
2022/09/15 04:41:18;;;;;;;3.78;2.75;;;;;;;16.71;100.00;94599.81;5036886;28;20730;-81
2022/09/15 04:43:44;;;;;;;5.75;2.88;;;;;;;16.74;100.00;94602.00;5029140;28;20182;-81
2022/09/15 04:46:10;;;;;;;11.50;3.47;;;;;;;16.78;100.00;94605.00;5029630;28;20303;-81
2022/09/15 04:48:36;;;;;;;3.60;2.90;;;;;;;16.93;100.00;94608.16;5009414;28;20210;-80
2022/09/15 04:51:10;;;;;;;3.83;3.00;;;;;;;16.90;100.00;94603.34;5023571;28;20183;-81
2022/09/15 04:53:36;;;;;;;4.93;2.97;;;;;;;16.87;100.00;94601.97;5022385;28;20192;-80
2022/09/15 04:56:06;;;;;;;3.22;2.80;;;;;;;16.97;100.00;94607.56;5025609;28;20207;-81
2022/09/15 04:58:39;;;;;;;3.17;2.85;;;;;;;17.00;100.00;94611.56;5034952;28;20271;-80
2022/09/15 05:01:16;;;;;;;4.78;2.90;;;;;;;16.89;100.00;94612.25;5044766;28;20187;-80
2022/09/15 05:03:43;;;;;;;4.18;2.53;;;;;;;16.75;100.00;94610.69;5031775;28;20187;-80
2022/09/15 05:06:10;;;;;;;4.55;2.83;;;;;;;16.62;100.00;94612.31;5021175;28;20211;-79
2022/09/15 05:08:35;;;;;;;3.88;2.83;;;;;;;16.76;100.00;94612.28;5016391;28;20182;-80
2022/09/15 05:11:11;;;;;;;4.43;2.88;;;;;;;16.81;100.00;94625.59;5022629;28;20186;-81
2022/09/15 05:13:37;;;;;;;5.13;2.80;;;;;;;16.86;100.00;94612.63;5022700;28;20674;-80
2022/09/15 05:16:03;;;;;;;4.05;2.50;;;;;;;16.82;100.00;94625.38;5027542;28;20263;-80
2022/09/15 05:18:30;;;;;;;5.10;2.63;;;;;;;16.97;100.00;94625.13;5022285;28;20806;-80
2022/09/15 05:21:03;;;;;;;4.88;2.55;;;;;;;16.95;100.00;94627.13;5034099;28;20190;-80
2022/09/15 05:23:28;;;;;;;3.30;2.40;;;;;;;16.94;100.00;94628.13;5016331;28;20614;-79
2022/09/15 05:25:55;;;;;;;3.05;2.75;;;;;;;16.93;100.00;94629.16;5022243;28;20221;-81
2022/09/15 05:28:20;;;;;;;3.67;2.80;;;;;;;16.82;100.00;94624.56;5026501;28;20187;-80
2022/09/15 05:30:46;;;;;;;4.53;2.83;;;;;;;16.80;100.00;94614.28;5025766;28;20179;-82
2022/09/15 05:33:11;;;;;;;5.78;2.75;;;;;;;16.89;100.00;94620.09;5008409;28;20198;-82
2022/09/15 05:35:36;;;;;;;4.57;2.60;;;;;;;16.84;100.00;94612.03;4996823;28;20211;-82
2022/09/15 05:38:01;;;;;;;3.58;2.75;;;;;;;16.81;100.00;94620.34;5020707;28;20214;-81
2022/09/15 05:40:27;;;;;;;4.40;3.08;;;;;;;16.88;100.00;94613.25;5022003;28;20660;-81
2022/09/15 05:42:52;;;;;;;4.43;3.10;;;;;;;16.80;100.00;94627.41;5009405;28;20196;-81
2022/09/15 05:45:17;;;;;;;6.70;3.33;;;;;;;16.56;100.00;94628.88;5014091;28;20220;-79
2022/09/15 05:47:43;;;;;;;4.25;3.33;;;;;;;16.67;100.00;94624.78;5023357;28;20577;-79
2022/09/15 05:50:09;;;;;;;5.05;3.25;;;;;;;16.53;100.00;94631.91;5016353;28;20545;-80
2022/09/15 05:52:35;;;;;;;5.22;3.13;;;;;;;16.51;100.00;94630.47;5036781;28;20263;-78
2022/09/15 05:55:00;;;;;;;3.35;3.05;;;;;;;16.60;100.00;94632.66;5020015;28;20627;-81
2022/09/15 05:57:26;;;;;;;4.15;3.05;;;;;;;16.55;100.00;94631.69;5022226;28;20227;-81
2022/09/15 05:59:51;;;;;;;4.57;3.25;;;;;;;16.58;100.00;94631.28;5024283;28;20233;-81
2022/09/15 06:02:16;;;;;;;3.80;2.85;;;;;;;16.63;100.00;94637.50;5042614;28;20197;-81
2022/09/15 06:04:42;;;;;;;6.20;3.45;;;;;;;16.62;100.00;94643.78;5021206;28;20186;-81
2022/09/15 06:07:07;;;;;;;5.50;3.80;;;;;;;16.65;100.00;94640.72;5027040;28;20174;-82
2022/09/15 06:09:33;;;;;;;4.20;3.38;;;;;;;16.67;100.00;94641.31;5020527;28;20190;-82
2022/09/15 06:11:58;;;;;;;4.65;3.20;;;;;;;16.69;100.00;94651.63;5005028;28;20210;-81
2022/09/15 06:14:24;;;;;;;3.63;3.25;;;;;;;16.71;100.00;94647.00;5011906;28;20191;-81
2022/09/15 06:16:49;;;;;;;4.07;3.28;;;;;;;16.72;100.00;94651.22;5025241;28;20720;-82
2022/09/15 06:19:14;;;;;;;4.28;3.10;;;;;;;16.63;100.00;94650.63;5023532;28;20191;-81
2022/09/15 06:21:40;;;;;;;4.03;2.95;;;;;;;16.54;100.00;94644.00;5002532;28;20178;-82
2022/09/15 06:24:05;;;;;;;3.63;3.20;;;;;;;16.56;100.00;94641.97;5021874;28;20213;-81
2022/09/15 06:26:31;;;;;;;4.30;3.17;;;;;;;16.58;100.00;94647.81;5024895;28;20210;-80
2022/09/15 06:28:59;;;;;;;4.20;3.05;;;;;;;16.44;100.00;94651.50;5019769;28;20179;-83
2022/09/15 06:31:26;;;;;;;4.65;2.85;;;;;;;16.38;100.00;94654.91;5029040;28;20198;-82
2022/09/15 06:33:54;;;;;;;3.83;2.65;;;;;;;16.51;100.00;94649.63;5002690;28;20222;-81
2022/09/15 06:36:20;;;;;;;2.70;2.17;;;;;;;16.45;100.00;94663.56;5017159;28;20687;-82
2022/09/15 06:38:46;;;;;;;3.70;2.65;;;;;;;16.54;100.00;94672.81;5040905;28;20641;-82
2022/09/15 06:41:12;;;;;;;2.75;2.15;;;;;;;16.54;100.00;94661.53;5021763;28;20644;-81
2022/09/15 06:43:38;;;;;;;4.00;2.05;;;;;;;16.55;100.00;94666.56;5020435;28;20194;-81
2022/09/15 06:46:08;;;;;;;4.72;1.90;;;;;;;16.57;100.00;94668.97;5028643;28;20229;-82
2022/09/15 06:48:35;;;;;;;1.80;1.70;;;;;;;16.59;100.00;94667.75;5022554;28;20193;-82
2022/09/15 06:51:00;;;;;;;3.60;1.50;;;;;;;16.57;100.00;94669.78;5021984;28;20563;-81
2022/09/15 06:53:30;;;;;;;1.73;1.58;;;;;;;16.76;100.00;94672.59;5013548;28;20182;-81
2022/09/15 06:56:01;;;;;;;1.50;1.40;;;;;;;16.74;100.00;94669.38;5020689;28;20211;-81
2022/09/15 06:58:27;;;;;;;1.67;1.08;;;;;;;16.80;100.00;94671.97;5017035;28;20207;-81
2022/09/15 07:00:52;;;;;;;1.42;1.05;;;;;;;16.82;100.00;94679.63;5026287;28;20226;-81
2022/09/15 07:03:17;;;;;;;4.55;1.05;;;;;;;16.89;100.00;94672.56;5021182;28;20198;-81
2022/09/15 07:05:45;;;;;;;1.02;0.82;;;;;;;16.91;100.00;94673.13;5034712;28;20692;-82
2022/09/15 07:08:10;;;;;;;1.48;0.75;;;;;;;17.01;100.00;94672.69;5008846;28;20190;-82
2022/09/15 07:10:35;;;;;;;1.45;0.80;;;;;;;17.05;100.00;94666.84;5016624;28;20186;-82
2022/09/15 07:13:02;;;;;;;0.73;0.70;;;;;;;17.08;100.00;94674.28;5014862;28;20201;-81
2022/09/15 07:15:27;;;;;;;0.70;0.60;;;;;;;16.90;100.00;94666.28;5026120;28;20198;-82
2022/09/15 07:17:52;;;;;;;0.80;0.80;;;;;;;16.84;100.00;94678.41;5024681;28;20254;-81
2022/09/15 07:20:18;;;;;;;0.80;0.68;;;;;;;16.81;100.00;94662.28;5019463;28;20213;-81
2022/09/15 07:22:43;;;;;;;0.70;0.70;;;;;;;16.98;99.93;94673.94;5024218;28;20626;-81
2022/09/15 07:25:08;;;;;;;1.58;0.60;;;;;;;16.99;99.39;94657.19;5011033;28;20210;-81
2022/09/15 07:27:34;;;;;;;2.38;0.65;;;;;;;16.97;98.81;94667.06;5042021;28;20257;-81
2022/09/15 07:29:59;;;;;;;0.82;0.63;;;;;;;16.99;98.67;94654.56;5004865;28;20222;-81
2022/09/15 07:32:24;;;;;;;1.45;0.40;;;;;;;17.05;98.51;94656.34;5016901;28;20205;-82
2022/09/15 07:34:50;;;;;;;1.35;0.50;;;;;;;17.15;97.57;94663.75;5019229;28;20194;-81
2022/09/15 07:37:16;;;;;;;2.03;0.73;;;;;;;17.06;96.99;94665.81;5036723;28;20205;-81
2022/09/15 07:39:41;;;;;;;1.67;0.60;;;;;;;17.12;97.41;94672.03;5012305;28;20565;-81
2022/09/15 07:42:06;;;;;;;1.70;0.50;;;;;;;16.76;98.83;94676.00;5026407;28;20273;-81
2022/09/15 07:44:32;;;;;;;0.60;0.50;;;;;;;16.81;99.29;94683.28;5029289;28;20233;-82
2022/09/15 07:46:57;;;;;;;0.88;0.73;;;;;;;16.81;99.37;94685.88;5022042;28;20206;-82
2022/09/15 07:49:22;;;;;;;0.63;0.40;;;;;;;16.49;99.88;94685.72;5022527;28;20190;-81
2022/09/15 07:51:48;;;;;;;1.13;0.57;;;;;;;16.75;99.77;94695.38;5021860;28;20198;-81
2022/09/15 07:54:14;;;;;;;0.50;0.50;;;;;;;16.73;100.00;94694.78;5024664;28;20249;-81
2022/09/15 07:56:39;;;;;;;1.40;0.57;;;;;;;16.60;100.00;94690.31;5021182;28;20692;-81
2022/09/15 07:59:04;;;;;;;0.47;0.47;;;;;;;16.64;100.00;94688.94;5007322;28;20193;-81
2022/09/15 08:01:30;;;;;;;0.60;0.60;;;;;;;16.63;100.00;94692.56;5002499;28;20664;-81
2022/09/15 08:03:55;;;;;;;0.60;0.40;;;;;;;16.67;100.00;94683.25;5017429;28;20218;-81
2022/09/15 08:06:22;;;;;;;0.75;0.50;;;;;;;16.83;100.00;94689.09;5001636;28;20202;-80
2022/09/15 08:08:48;;;;;;;1.80;0.50;;;;;;;16.79;100.00;94701.03;5013572;28;20194;-81
2022/09/15 08:11:18;;;;;;;2.15;0.50;;;;;;;17.02;100.00;94705.78;5005885;28;20182;-81
2022/09/15 08:13:44;;;;;;;3.10;0.60;;;;;;;17.40;98.27;94716.28;5009001;28;20187;-81
2022/09/15 08:16:12;;;;;;;0.40;0.40;;;;;;;17.61;96.25;94716.00;5038895;28;20619;-81
2022/09/15 08:18:43;;;;;;;2.47;0.55;;;;;;;17.75;95.68;94717.53;5006327;28;20211;-79
2022/09/15 08:21:12;;;;;;;0.50;0.47;;;;;;;17.88;93.74;94727.16;5016167;28;20282;-79
2022/09/15 08:23:37;;;;;;;0.30;0.30;;;;;;;17.94;93.40;94715.81;5025100;28;20281;-80
2022/09/15 08:26:08;;;;;;;3.95;0.60;;;;;;;17.65;93.83;94725.03;5007757;28;20678;-80
2022/09/15 08:28:33;;;;;;;0.50;0.50;;;;;;;17.80;93.76;94735.31;5023936;28;20180;-80
2022/09/15 08:31:00;;;;;;;0.80;0.80;;;;;;;17.74;95.04;94736.94;5006066;28;20563;-80
2022/09/15 08:33:26;;;;;;;0.52;0.52;;;;;;;17.63;95.20;94745.47;5002952;28;20199;-81
2022/09/15 08:35:51;;;;;;;0.70;0.70;;;;;;;17.31;96.60;94746.41;5007001;28;20550;-80
2022/09/15 08:38:17;;;;;;;1.70;0.80;;;;;;;17.10;97.04;94750.94;5022096;28;20301;-80
2022/09/15 08:40:44;;;;;;;0.73;0.73;;;;;;;16.89;99.22;94753.84;5006894;28;20184;-80
2022/09/15 08:43:17;;;;;;;0.90;0.90;;;;;;;16.65;99.57;94742.97;5023886;28;20306;-80
2022/09/15 08:45:54;;;;;;;1.33;1.23;;;;;;;16.59;100.00;94749.00;5031598;28;20214;-80
2022/09/15 08:48:25;;;;;;;6.55;1.60;;;;;;;16.41;100.00;94757.50;5022679;28;20232;-81
2022/09/15 08:50:53;;;;;;;59.53;3.35;;;;;;;16.23;100.00;94761.72;5027391;28;20252;-81
2022/09/15 08:53:26;;;;;;;3.88;1.50;;;;;;;15.94;100.00;94761.09;5037602;28;20194;-81
2022/09/15 08:55:53;;;;;;;1.88;1.05;;;;;;;16.00;100.00;94759.50;5021563;28;20206;-81
2022/09/15 08:58:19;;;;;;;0.82;0.82;;;;;;;15.89;100.00;94770.56;5024719;28;20240;-80
2022/09/15 09:00:47;;;;;;;0.68;0.55;;;;;;;15.87;100.00;94765.53;5026218;28;20218;-81
2022/09/15 09:03:41;;;;;;;1.50;0.50;;;;;;;15.67;100.00;94768.09;5019133;28;20183;-81
2022/09/15 09:06:24;;;;;;;0.85;0.52;;;;;;;15.67;100.00;94778.56;4998090;28;20634;-82
2022/09/15 09:09:05;;;;;;;0.30;0.30;;;;;;;15.81;99.99;94787.25;5024571;28;20187;-82
2022/09/15 09:11:58;;;;;;;0.25;0.25;;;;;;;15.70;98.61;94790.44;5008655;28;20183;-81
2022/09/15 09:14:30;;;;;;;0.52;0.40;;;;;;;15.67;99.32;94786.44;5023314;28;20186;-82
2022/09/15 09:17:01;;;;;;;0.45;0.45;;;;;;;15.73;98.98;94792.69;5027302;28;20210;-82
2022/09/15 09:19:52;;;;;;;0.60;0.60;;;;;;;15.68;98.59;94789.84;5025914;28;20187;-82
2022/09/15 09:22:22;;;;;;;1.50;0.50;;;;;;;15.77;98.36;94788.66;5020494;28;20186;-82
2022/09/15 09:24:50;;;;;;;0.60;0.60;;;;;;;15.68;97.72;94793.28;5036320;28;20241;-81
2022/09/15 09:27:19;;;;;;;0.50;0.50;;;;;;;15.61;98.65;94783.78;5020755;28;20270;-81
2022/09/15 09:29:50;;;;;;;0.60;0.60;;;;;;;15.65;98.37;94798.91;5012992;28;20179;-81
2022/09/15 09:32:20;;;;;;;0.65;0.65;;;;;;;15.44;98.98;94801.59;5022416;28;20190;-81
2022/09/15 09:35:00;;;;;;;0.60;0.60;;;;;;;15.40;98.39;94813.47;5049473;28;20186;-82
2022/09/15 09:37:26;;;;;;;0.50;0.50;;;;;;;15.34;98.12;94798.56;5032262;28;20223;-81
2022/09/15 09:39:52;;;;;;;0.32;0.32;;;;;;;15.61;96.50;94795.06;5045759;28;20194;-83
2022/09/15 09:42:17;;;;;;;0.50;0.40;;;;;;;15.65;96.70;94796.28;5046314;28;20734;-82
2022/09/15 09:44:44;;;;;;;0.40;0.40;;;;;;;15.76;95.91;94797.53;5026901;28;20213;-83
2022/09/15 09:47:11;;;;;;;0.85;0.40;;;;;;;15.80;95.64;94799.53;5018262;28;20277;-82
2022/09/15 09:49:48;;;;;;;0.73;0.40;;;;;;;15.73;96.09;94792.69;5008670;28;20678;-82
2022/09/15 09:52:32;;;;;;;0.40;0.40;;;;;;;15.75;96.05;94798.53;5026014;28;20218;-82
2022/09/15 09:55:03;;;;;;;0.88;0.52;;;;;;;15.65;97.00;94803.34;5007279;28;20243;-81
2022/09/15 09:57:35;;;;;;;0.40;0.40;;;;;;;15.49;97.23;94805.25;5043720;28;20206;-83
2022/09/15 10:00:00;;;;;;;0.32;0.32;;;;;;;15.30;97.92;94804.19;5017514;28;20197;-82
2022/09/15 10:02:26;;;;;;;0.45;0.45;;;;;;;15.32;97.15;94798.75;5007396;28;20179;-81
2022/09/15 10:05:01;;;;;;;0.60;0.60;;;;;;;15.34;97.87;94799.34;5012146;28;20805;-82
2022/09/15 10:07:26;;;;;;;0.60;0.60;;;;;;;15.11;97.58;94804.91;5023665;28;20190;-82
2022/09/15 10:09:59;;;;;;;0.85;0.75;;;;;;;14.76;99.90;94803.28;5009359;28;20193;-81
2022/09/15 10:12:39;;;;;;;1.10;1.00;;;;;;;14.98;100.00;94802.19;5010453;28;20202;-82
2022/09/15 10:15:07;;;;;;;1.02;1.00;;;;;;;15.07;99.24;94805.47;5026273;28;20201;-82
2022/09/15 10:17:35;;;;;;;1.38;1.05;;;;;;;14.92;99.13;94806.38;5021573;28;20202;-82
2022/09/15 10:20:03;;;;;;;1.50;1.00;;;;;;;14.81;99.57;94804.31;5031252;28;20195;-81
2022/09/15 10:22:34;;;;;;;0.82;0.82;;;;;;;14.83;99.62;94810.16;5027013;28;20276;-81
2022/09/15 10:25:02;;;;;;;0.93;0.93;;;;;;;14.84;99.07;94811.78;5043373;28;20187;-81
2022/09/15 10:27:31;;;;;;;2.13;1.80;;;;;;;14.75;99.06;94823.34;5028595;28;20163;-82
2022/09/15 10:30:11;;;;;;;2.00;1.90;;;;;;;14.68;99.64;94820.72;5027296;28;20183;-82
2022/09/15 10:32:37;;;;;;;4.60;3.05;;;;;;;14.64;98.46;94816.03;5031421;28;20209;-84
2022/09/15 10:35:11;;;;;;;2.72;2.38;;;;;;;14.53;97.15;94813.97;5010481;28;20209;-83
2022/09/15 10:37:46;;;;;;;2.50;2.25;;;;;;;14.70;96.18;94815.28;5005634;28;20294;-83
2022/09/15 10:40:28;;;;;;;3.25;2.88;;;;;;;14.28;98.45;94818.75;5024859;28;20182;-83
2022/09/15 10:43:04;;;;;;;4.05;2.80;;;;;;;14.12;99.24;94828.44;5025331;28;20636;-83
2022/09/15 10:45:33;;;;;;;4.03;3.10;;;;;;;14.21;99.61;94826.50;5036190;28;20218;-82
2022/09/15 10:48:05;;;;;;;4.00;3.60;;;;;;;14.15;100.00;94833.31;5012568;28;20187;-83
2022/09/15 10:50:54;;;;;;;4.43;3.50;;;;;;;14.29;100.00;94830.81;5025424;28;20190;-82
2022/09/15 10:53:48;;;;;;;4.68;4.28;;;;;;;14.23;98.89;94834.19;5031254;28;20183;-82
2022/09/15 10:56:37;;;;;;;4.60;4.20;;;;;;;14.14;100.00;94830.91;5032086;28;20207;-83
2022/09/15 10:59:25;;;;;;;6.10;4.38;;;;;;;14.20;98.37;94831.94;5008411;28;20209;-82
2022/09/15 11:02:22;;;;;;;5.05;4.60;;;;;;;14.35;98.25;94836.09;5032059;28;20194;-83
2022/09/15 11:05:18;;;;;;;5.60;4.50;;;;;;;14.11;97.99;94837.28;5023289;28;20185;-83
2022/09/15 11:07:48;;;;;;;4.60;4.20;;;;;;;14.16;96.38;94847.19;5028020;28;20183;-83
2022/09/15 11:10:44;;;;;;;6.57;5.30;;;;;;;14.23;96.13;94845.44;5027521;28;20182;-83
2022/09/15 11:13:22;;;;;;;4.80;4.40;;;;;;;14.24;95.62;94848.84;5036483;28;20198;-82
2022/09/15 11:16:00;;;;;;;4.75;4.35;;;;;;;14.49;94.29;94851.91;5022322;28;20605;-82
2022/09/15 11:18:43;;;;;;;5.25;4.65;;;;;;;14.60;93.97;94854.81;5004907;28;20290;-82
2022/09/15 11:21:41;;;;;;;6.35;5.53;;;;;;;14.44;94.66;94858.47;5024494;28;20183;-82
2022/09/15 11:24:34;;;;;;;6.60;5.15;;;;;;;14.58;94.45;94869.88;5023570;28;20198;-81
2022/09/15 11:27:22;;;;;;;6.45;5.20;;;;;;;14.20;96.13;94863.25;5022913;28;20579;-82
2022/09/15 11:30:08;;;;;;;7.22;5.35;;;;;;;14.69;93.82;94861.53;5030161;28;20179;-82
2022/09/15 11:32:45;;;;;;;7.53;5.50;;;;;;;13.89;96.15;94878.22;5028569;28;20265;-82
2022/09/15 11:35:33;;;;;;;10.18;5.95;;;;;;;14.42;97.13;94881.38;5025539;28;20557;-82
2022/09/15 11:38:29;;;;;;;7.30;5.93;;;;;;;14.54;95.04;94880.88;5026310;28;20202;-81
2022/09/15 11:41:12;;;;;;;5.15;4.65;;;;;;;14.62;93.23;94881.56;5040481;28;20221;-82
2022/09/15 11:44:00;;;;;;;5.47;4.38;;;;;;;14.68;91.15;94886.03;5014476;28;20203;-82